sensor_id;sensor_type;location;lat;lon;timestamp;P1;durP1;ratioP1;P2;durP2;ratioP2
8007;SDS011;4049;49.468;11.200;2023-02-05T00:00:26;6.33;;;3.23;;
8007;SDS011;4049;49.468;11.200;2023-02-05T00:02:53;3.63;;;2.37;;
8007;SDS011;4049;49.468;11.200;2023-02-05T00:05:20;3.60;;;2.50;;
8007;SDS011;4049;49.468;11.200;2023-02-05T00:07:48;2.73;;;2.13;;
8007;SDS011;4049;49.468;11.200;2023-02-05T00:10:15;5.93;;;2.83;;
8007;SDS011;4049;49.468;11.200;2023-02-05T00:12:42;3.30;;;2.77;;
8007;SDS011;4049;49.468;11.200;2023-02-05T00:15:09;4.97;;;3.27;;
8007;SDS011;4049;49.468;11.200;2023-02-05T00:17:36;3.90;;;2.60;;
8007;SDS011;4049;49.468;11.200;2023-02-05T00:20:03;3.77;;;2.40;;
8007;SDS011;4049;49.468;11.200;2023-02-05T00:22:30;3.50;;;2.60;;
8007;SDS011;4049;49.468;11.200;2023-02-05T00:24:59;3.53;;;2.70;;
8007;SDS011;4049;49.468;11.200;2023-02-05T00:27:26;5.17;;;2.50;;
8007;SDS011;4049;49.468;11.200;2023-02-05T00:29:53;2.63;;;2.23;;
8007;SDS011;4049;49.468;11.200;2023-02-05T00:32:19;3.80;;;2.50;;
8007;SDS011;4049;49.468;11.200;2023-02-05T00:34:46;3.30;;;2.60;;
8007;SDS011;4049;49.468;11.200;2023-02-05T00:37:13;5.40;;;2.63;;
8007;SDS011;4049;49.468;11.200;2023-02-05T00:39:40;3.60;;;2.57;;
8007;SDS011;4049;49.468;11.200;2023-02-05T00:42:08;3.10;;;2.03;;
8007;SDS011;4049;49.468;11.200;2023-02-05T00:44:35;4.00;;;2.77;;
8007;SDS011;4049;49.468;11.200;2023-02-05T00:47:02;2.87;;;2.27;;
8007;SDS011;4049;49.468;11.200;2023-02-05T00:49:28;3.97;;;2.40;;
8007;SDS011;4049;49.468;11.200;2023-02-05T00:51:55;3.23;;;2.70;;
8007;SDS011;4049;49.468;11.200;2023-02-05T00:54:22;4.33;;;2.30;;
8007;SDS011;4049;49.468;11.200;2023-02-05T00:56:49;2.97;;;2.40;;
8007;SDS011;4049;49.468;11.200;2023-02-05T00:59:17;4.63;;;2.80;;
8007;SDS011;4049;49.468;11.200;2023-02-05T01:01:44;3.50;;;2.47;;
8007;SDS011;4049;49.468;11.200;2023-02-05T01:04:11;3.77;;;2.63;;
8007;SDS011;4049;49.468;11.200;2023-02-05T01:06:37;3.57;;;2.40;;
8007;SDS011;4049;49.468;11.200;2023-02-05T01:09:04;3.70;;;2.47;;
8007;SDS011;4049;49.468;11.200;2023-02-05T01:11:31;3.47;;;2.57;;
8007;SDS011;4049;49.468;11.200;2023-02-05T01:13:58;2.97;;;2.40;;
8007;SDS011;4049;49.468;11.200;2023-02-05T01:16:26;4.03;;;2.80;;
8007;SDS011;4049;49.468;11.200;2023-02-05T01:18:53;4.00;;;2.70;;
8007;SDS011;4049;49.468;11.200;2023-02-05T01:21:20;3.87;;;2.70;;
8007;SDS011;4049;49.468;11.200;2023-02-05T01:23:48;4.07;;;3.00;;
8007;SDS011;4049;49.468;11.200;2023-02-05T01:26:16;3.77;;;2.77;;
8007;SDS011;4049;49.468;11.200;2023-02-05T01:28:43;3.67;;;2.60;;
8007;SDS011;4049;49.468;11.200;2023-02-05T01:31:11;3.90;;;2.77;;
8007;SDS011;4049;49.468;11.200;2023-02-05T01:33:39;5.97;;;3.27;;
8007;SDS011;4049;49.468;11.200;2023-02-05T01:36:06;4.53;;;3.03;;
8007;SDS011;4049;49.468;11.200;2023-02-05T01:38:33;4.40;;;2.93;;
8007;SDS011;4049;49.468;11.200;2023-02-05T01:41:00;4.20;;;3.17;;
8007;SDS011;4049;49.468;11.200;2023-02-05T01:43:26;4.63;;;3.03;;
8007;SDS011;4049;49.468;11.200;2023-02-05T01:45:59;5.30;;;3.20;;
8007;SDS011;4049;49.468;11.200;2023-02-05T01:48:33;5.87;;;3.53;;
8007;SDS011;4049;49.468;11.200;2023-02-05T01:51:05;3.83;;;3.10;;
8007;SDS011;4049;49.468;11.200;2023-02-05T01:53:34;4.60;;;2.83;;
8007;SDS011;4049;49.468;11.200;2023-02-05T01:56:02;6.23;;;3.37;;
8007;SDS011;4049;49.468;11.200;2023-02-05T01:58:35;3.87;;;3.03;;
8007;SDS011;4049;49.468;11.200;2023-02-05T02:01:06;6.17;;;3.60;;
8007;SDS011;4049;49.468;11.200;2023-02-05T02:03:33;7.30;;;3.40;;
8007;SDS011;4049;49.468;11.200;2023-02-05T02:06:00;4.93;;;3.33;;
8007;SDS011;4049;49.468;11.200;2023-02-05T02:08:30;5.40;;;3.23;;
8007;SDS011;4049;49.468;11.200;2023-02-05T02:10:57;6.53;;;3.63;;
8007;SDS011;4049;49.468;11.200;2023-02-05T02:13:26;6.27;;;3.83;;
8007;SDS011;4049;49.468;11.200;2023-02-05T02:15:55;4.77;;;3.53;;
8007;SDS011;4049;49.468;11.200;2023-02-05T02:18:23;4.50;;;3.70;;
8007;SDS011;4049;49.468;11.200;2023-02-05T02:20:51;6.10;;;4.10;;
8007;SDS011;4049;49.468;11.200;2023-02-05T02:23:36;4.93;;;3.80;;
8007;SDS011;4049;49.468;11.200;2023-02-05T02:26:16;6.50;;;3.80;;
8007;SDS011;4049;49.468;11.200;2023-02-05T02:28:58;4.93;;;4.00;;
8007;SDS011;4049;49.468;11.200;2023-02-05T02:31:28;5.17;;;3.37;;
8007;SDS011;4049;49.468;11.200;2023-02-05T02:34:00;7.50;;;3.63;;
8007;SDS011;4049;49.468;11.200;2023-02-05T02:36:33;4.87;;;3.80;;
8007;SDS011;4049;49.468;11.200;2023-02-05T02:39:05;7.97;;;3.37;;
8007;SDS011;4049;49.468;11.200;2023-02-05T02:41:37;5.53;;;3.50;;
8007;SDS011;4049;49.468;11.200;2023-02-05T02:44:09;5.33;;;3.40;;
8007;SDS011;4049;49.468;11.200;2023-02-05T02:46:40;7.73;;;3.83;;
8007;SDS011;4049;49.468;11.200;2023-02-05T02:49:10;5.70;;;3.63;;
8007;SDS011;4049;49.468;11.200;2023-02-05T02:51:40;5.30;;;3.10;;
8007;SDS011;4049;49.468;11.200;2023-02-05T02:54:08;5.17;;;3.20;;
8007;SDS011;4049;49.468;11.200;2023-02-05T02:56:41;5.80;;;3.63;;
8007;SDS011;4049;49.468;11.200;2023-02-05T02:59:10;5.13;;;3.63;;
8007;SDS011;4049;49.468;11.200;2023-02-05T03:01:40;7.07;;;3.43;;
8007;SDS011;4049;49.468;11.200;2023-02-05T03:04:10;4.53;;;3.10;;
8007;SDS011;4049;49.468;11.200;2023-02-05T03:06:41;5.40;;;3.33;;
8007;SDS011;4049;49.468;11.200;2023-02-05T03:09:12;5.43;;;3.43;;
8007;SDS011;4049;49.468;11.200;2023-02-05T03:11:46;7.50;;;3.30;;
8007;SDS011;4049;49.468;11.200;2023-02-05T03:14:14;4.90;;;3.60;;
8007;SDS011;4049;49.468;11.200;2023-02-05T03:16:41;7.13;;;4.03;;
8007;SDS011;4049;49.468;11.200;2023-02-05T03:19:08;6.97;;;3.60;;
8007;SDS011;4049;49.468;11.200;2023-02-05T03:21:35;9.07;;;3.87;;
8007;SDS011;4049;49.468;11.200;2023-02-05T03:24:05;5.63;;;3.47;;
8007;SDS011;4049;49.468;11.200;2023-02-05T03:26:34;7.13;;;3.80;;
8007;SDS011;4049;49.468;11.200;2023-02-05T03:29:03;5.90;;;3.97;;
8007;SDS011;4049;49.468;11.200;2023-02-05T03:31:35;5.27;;;3.33;;
8007;SDS011;4049;49.468;11.200;2023-02-05T03:34:11;5.23;;;3.43;;
8007;SDS011;4049;49.468;11.200;2023-02-05T03:36:51;6.63;;;4.33;;
8007;SDS011;4049;49.468;11.200;2023-02-05T03:39:29;6.43;;;4.03;;
8007;SDS011;4049;49.468;11.200;2023-02-05T03:42:06;6.10;;;3.77;;
8007;SDS011;4049;49.468;11.200;2023-02-05T03:47:56;4.10;;;3.27;;
8007;SDS011;4049;49.468;11.200;2023-02-05T03:50:30;4.87;;;3.27;;
8007;SDS011;4049;49.468;11.200;2023-02-05T03:53:02;5.73;;;3.63;;
8007;SDS011;4049;49.468;11.200;2023-02-05T03:55:35;5.00;;;3.40;;
8007;SDS011;4049;49.468;11.200;2023-02-05T03:58:07;5.77;;;3.50;;
8007;SDS011;4049;49.468;11.200;2023-02-05T04:00:39;5.27;;;3.40;;
8007;SDS011;4049;49.468;11.200;2023-02-05T04:03:07;3.97;;;3.10;;
8007;SDS011;4049;49.468;11.200;2023-02-05T04:05:34;4.67;;;3.37;;
8007;SDS011;4049;49.468;11.200;2023-02-05T04:08:01;5.37;;;3.57;;
8007;SDS011;4049;49.468;11.200;2023-02-05T04:10:28;7.00;;;4.20;;
8007;SDS011;4049;49.468;11.200;2023-02-05T04:12:55;5.57;;;4.00;;
8007;SDS011;4049;49.468;11.200;2023-02-05T04:15:22;8.33;;;4.30;;
8007;SDS011;4049;49.468;11.200;2023-02-05T04:17:49;5.10;;;3.63;;
8007;SDS011;4049;49.468;11.200;2023-02-05T04:20:17;6.67;;;3.80;;
8007;SDS011;4049;49.468;11.200;2023-02-05T04:22:44;5.40;;;3.70;;
8007;SDS011;4049;49.468;11.200;2023-02-05T04:25:11;4.70;;;3.70;;
8007;SDS011;4049;49.468;11.200;2023-02-05T04:27:37;4.70;;;3.57;;
8007;SDS011;4049;49.468;11.200;2023-02-05T04:30:04;6.97;;;3.57;;
8007;SDS011;4049;49.468;11.200;2023-02-05T04:32:32;7.63;;;3.77;;
8007;SDS011;4049;49.468;11.200;2023-02-05T04:34:58;7.90;;;3.80;;
8007;SDS011;4049;49.468;11.200;2023-02-05T04:37:27;6.53;;;3.77;;
8007;SDS011;4049;49.468;11.200;2023-02-05T04:39:53;6.87;;;4.07;;
8007;SDS011;4049;49.468;11.200;2023-02-05T04:42:20;5.40;;;3.77;;
8007;SDS011;4049;49.468;11.200;2023-02-05T04:44:47;5.73;;;3.60;;
8007;SDS011;4049;49.468;11.200;2023-02-05T04:47:14;6.03;;;3.70;;
8007;SDS011;4049;49.468;11.200;2023-02-05T04:49:41;5.47;;;3.50;;
8007;SDS011;4049;49.468;11.200;2023-02-05T04:52:07;8.37;;;4.20;;
8007;SDS011;4049;49.468;11.200;2023-02-05T04:54:36;6.20;;;3.70;;
8007;SDS011;4049;49.468;11.200;2023-02-05T04:57:03;8.73;;;4.27;;
8007;SDS011;4049;49.468;11.200;2023-02-05T04:59:30;6.87;;;3.83;;
8007;SDS011;4049;49.468;11.200;2023-02-05T05:01:57;8.40;;;4.43;;
8007;SDS011;4049;49.468;11.200;2023-02-05T05:04:24;6.83;;;3.97;;
8007;SDS011;4049;49.468;11.200;2023-02-05T05:06:51;7.37;;;3.73;;
8007;SDS011;4049;49.468;11.200;2023-02-05T05:09:18;7.37;;;3.93;;
8007;SDS011;4049;49.468;11.200;2023-02-05T05:11:49;5.87;;;3.67;;
8007;SDS011;4049;49.468;11.200;2023-02-05T05:14:16;5.80;;;3.83;;
8007;SDS011;4049;49.468;11.200;2023-02-05T05:16:43;4.53;;;3.50;;
8007;SDS011;4049;49.468;11.200;2023-02-05T05:19:09;7.60;;;4.10;;
8007;SDS011;4049;49.468;11.200;2023-02-05T05:21:36;5.57;;;3.33;;
8007;SDS011;4049;49.468;11.200;2023-02-05T05:24:03;5.30;;;3.37;;
8007;SDS011;4049;49.468;11.200;2023-02-05T05:26:30;4.30;;;3.10;;
8007;SDS011;4049;49.468;11.200;2023-02-05T05:28:58;4.53;;;3.50;;
8007;SDS011;4049;49.468;11.200;2023-02-05T05:31:25;4.40;;;3.23;;
8007;SDS011;4049;49.468;11.200;2023-02-05T05:33:52;5.83;;;3.47;;
8007;SDS011;4049;49.468;11.200;2023-02-05T05:36:19;5.73;;;3.27;;
8007;SDS011;4049;49.468;11.200;2023-02-05T05:38:46;7.23;;;3.23;;
8007;SDS011;4049;49.468;11.200;2023-02-05T05:41:15;6.43;;;3.67;;
8007;SDS011;4049;49.468;11.200;2023-02-05T05:44:03;5.10;;;3.60;;
8007;SDS011;4049;49.468;11.200;2023-02-05T05:46:30;6.33;;;3.53;;
8007;SDS011;4049;49.468;11.200;2023-02-05T05:48:58;6.43;;;3.73;;
8007;SDS011;4049;49.468;11.200;2023-02-05T05:51:26;7.80;;;3.67;;
8007;SDS011;4049;49.468;11.200;2023-02-05T05:53:54;5.23;;;3.17;;
8007;SDS011;4049;49.468;11.200;2023-02-05T05:56:22;5.53;;;3.53;;
8007;SDS011;4049;49.468;11.200;2023-02-05T05:58:49;5.83;;;3.50;;
8007;SDS011;4049;49.468;11.200;2023-02-05T06:01:17;4.97;;;3.07;;
8007;SDS011;4049;49.468;11.200;2023-02-05T06:03:46;4.90;;;3.13;;
8007;SDS011;4049;49.468;11.200;2023-02-05T06:06:13;7.03;;;3.07;;
8007;SDS011;4049;49.468;11.200;2023-02-05T06:08:40;5.90;;;3.27;;
8007;SDS011;4049;49.468;11.200;2023-02-05T06:11:07;4.03;;;3.33;;
8007;SDS011;4049;49.468;11.200;2023-02-05T06:13:34;4.23;;;3.13;;
8007;SDS011;4049;49.468;11.200;2023-02-05T06:16:01;5.07;;;3.50;;
8007;SDS011;4049;49.468;11.200;2023-02-05T06:18:29;6.03;;;3.53;;
8007;SDS011;4049;49.468;11.200;2023-02-05T06:20:56;6.13;;;3.80;;
8007;SDS011;4049;49.468;11.200;2023-02-05T06:23:23;7.60;;;3.60;;
8007;SDS011;4049;49.468;11.200;2023-02-05T06:25:49;6.27;;;3.20;;
8007;SDS011;4049;49.468;11.200;2023-02-05T06:28:16;6.60;;;3.73;;
8007;SDS011;4049;49.468;11.200;2023-02-05T06:30:43;5.73;;;3.33;;
8007;SDS011;4049;49.468;11.200;2023-02-05T06:33:10;5.70;;;3.50;;
8007;SDS011;4049;49.468;11.200;2023-02-05T06:35:39;6.40;;;3.17;;
8007;SDS011;4049;49.468;11.200;2023-02-05T06:38:06;4.73;;;3.40;;
8007;SDS011;4049;49.468;11.200;2023-02-05T06:40:33;5.27;;;3.60;;
8007;SDS011;4049;49.468;11.200;2023-02-05T06:43:00;5.20;;;3.57;;
8007;SDS011;4049;49.468;11.200;2023-02-05T06:45:27;8.60;;;3.80;;
8007;SDS011;4049;49.468;11.200;2023-02-05T06:47:53;5.33;;;3.43;;
8007;SDS011;4049;49.468;11.200;2023-02-05T06:50:21;5.20;;;3.20;;
8007;SDS011;4049;49.468;11.200;2023-02-05T06:52:50;8.53;;;4.30;;
8007;SDS011;4049;49.468;11.200;2023-02-05T06:55:17;7.10;;;3.93;;
8007;SDS011;4049;49.468;11.200;2023-02-05T06:57:43;8.33;;;4.73;;
8007;SDS011;4049;49.468;11.200;2023-02-05T07:00:11;9.43;;;5.57;;
8007;SDS011;4049;49.468;11.200;2023-02-05T07:02:39;15.63;;;7.10;;
8007;SDS011;4049;49.468;11.200;2023-02-05T07:05:06;13.53;;;6.03;;
8007;SDS011;4049;49.468;11.200;2023-02-05T07:07:33;15.57;;;6.57;;
8007;SDS011;4049;49.468;11.200;2023-02-05T07:10:01;8.47;;;4.93;;
8007;SDS011;4049;49.468;11.200;2023-02-05T07:12:28;9.57;;;4.33;;
8007;SDS011;4049;49.468;11.200;2023-02-05T07:14:55;8.23;;;4.00;;
8007;SDS011;4049;49.468;11.200;2023-02-05T07:17:22;8.13;;;3.83;;
8007;SDS011;4049;49.468;11.200;2023-02-05T07:19:49;5.83;;;4.30;;
8007;SDS011;4049;49.468;11.200;2023-02-05T07:22:16;6.10;;;3.73;;
8007;SDS011;4049;49.468;11.200;2023-02-05T07:24:43;5.63;;;3.90;;
8007;SDS011;4049;49.468;11.200;2023-02-05T07:27:11;5.70;;;4.27;;
8007;SDS011;4049;49.468;11.200;2023-02-05T07:29:38;5.87;;;3.90;;
8007;SDS011;4049;49.468;11.200;2023-02-05T07:32:05;12.37;;;5.63;;
8007;SDS011;4049;49.468;11.200;2023-02-05T07:34:32;5.27;;;3.57;;
8007;SDS011;4049;49.468;11.200;2023-02-05T07:36:59;7.00;;;3.47;;
8007;SDS011;4049;49.468;11.200;2023-02-05T07:39:25;8.10;;;3.83;;
8007;SDS011;4049;49.468;11.200;2023-02-05T07:41:53;5.37;;;4.00;;
8007;SDS011;4049;49.468;11.200;2023-02-05T07:44:21;7.27;;;4.07;;
8007;SDS011;4049;49.468;11.200;2023-02-05T07:46:48;9.23;;;4.10;;
8007;SDS011;4049;49.468;11.200;2023-02-05T07:49:14;5.50;;;3.60;;
8007;SDS011;4049;49.468;11.200;2023-02-05T07:51:41;9.93;;;4.87;;
8007;SDS011;4049;49.468;11.200;2023-02-05T07:54:09;7.80;;;4.20;;
8007;SDS011;4049;49.468;11.200;2023-02-05T07:56:38;5.47;;;3.63;;
8007;SDS011;4049;49.468;11.200;2023-02-05T07:59:05;5.87;;;3.60;;
8007;SDS011;4049;49.468;11.200;2023-02-05T08:01:33;4.73;;;3.73;;
8007;SDS011;4049;49.468;11.200;2023-02-05T08:04:00;4.07;;;3.10;;
8007;SDS011;4049;49.468;11.200;2023-02-05T08:06:27;5.80;;;3.70;;
8007;SDS011;4049;49.468;11.200;2023-02-05T08:08:54;4.20;;;3.00;;
8007;SDS011;4049;49.468;11.200;2023-02-05T08:11:21;6.47;;;3.80;;
8007;SDS011;4049;49.468;11.200;2023-02-05T08:13:47;6.37;;;3.67;;
8007;SDS011;4049;49.468;11.200;2023-02-05T08:16:14;8.33;;;4.10;;
8007;SDS011;4049;49.468;11.200;2023-02-05T08:18:43;8.33;;;4.63;;
8007;SDS011;4049;49.468;11.200;2023-02-05T08:21:13;8.23;;;4.77;;
8007;SDS011;4049;49.468;11.200;2023-02-05T08:23:40;9.50;;;5.63;;
8007;SDS011;4049;49.468;11.200;2023-02-05T08:26:06;10.40;;;5.97;;
8007;SDS011;4049;49.468;11.200;2023-02-05T08:28:33;9.93;;;5.33;;
8007;SDS011;4049;49.468;11.200;2023-02-05T08:31:00;8.87;;;5.27;;
8007;SDS011;4049;49.468;11.200;2023-02-05T08:33:27;8.43;;;5.13;;
8007;SDS011;4049;49.468;11.200;2023-02-05T08:35:55;7.67;;;4.80;;
8007;SDS011;4049;49.468;11.200;2023-02-05T08:38:23;6.90;;;4.67;;
8007;SDS011;4049;49.468;11.200;2023-02-05T08:40:50;12.17;;;5.70;;
8007;SDS011;4049;49.468;11.200;2023-02-05T08:43:17;23.57;;;12.70;;
8007;SDS011;4049;49.468;11.200;2023-02-05T08:45:44;17.53;;;8.73;;
8007;SDS011;4049;49.468;11.200;2023-02-05T08:48:12;13.73;;;6.70;;
8007;SDS011;4049;49.468;11.200;2023-02-05T08:50:39;7.00;;;4.50;;
8007;SDS011;4049;49.468;11.200;2023-02-05T08:53:11;5.63;;;3.70;;
8007;SDS011;4049;49.468;11.200;2023-02-05T08:55:38;7.10;;;4.70;;
8007;SDS011;4049;49.468;11.200;2023-02-05T08:58:05;9.17;;;4.60;;
8007;SDS011;4049;49.468;11.200;2023-02-05T09:00:32;6.13;;;3.93;;
8007;SDS011;4049;49.468;11.200;2023-02-05T09:03:02;6.33;;;4.30;;
8007;SDS011;4049;49.468;11.200;2023-02-05T09:05:29;6.63;;;4.13;;
8007;SDS011;4049;49.468;11.200;2023-02-05T09:07:56;8.63;;;5.23;;
8007;SDS011;4049;49.468;11.200;2023-02-05T09:10:24;6.70;;;4.13;;
8007;SDS011;4049;49.468;11.200;2023-02-05T09:12:51;8.37;;;4.63;;
8007;SDS011;4049;49.468;11.200;2023-02-05T09:15:18;10.20;;;4.83;;
8007;SDS011;4049;49.468;11.200;2023-02-05T09:17:45;6.37;;;4.93;;
8007;SDS011;4049;49.468;11.200;2023-02-05T09:20:12;5.30;;;4.40;;
8007;SDS011;4049;49.468;11.200;2023-02-05T09:22:38;6.73;;;5.00;;
8007;SDS011;4049;49.468;11.200;2023-02-05T09:25:05;6.97;;;4.50;;
8007;SDS011;4049;49.468;11.200;2023-02-05T09:27:34;5.73;;;4.30;;
8007;SDS011;4049;49.468;11.200;2023-02-05T09:30:01;11.77;;;6.10;;
8007;SDS011;4049;49.468;11.200;2023-02-05T09:32:28;10.33;;;5.73;;
8007;SDS011;4049;49.468;11.200;2023-02-05T09:34:55;10.87;;;7.20;;
8007;SDS011;4049;49.468;11.200;2023-02-05T09:37:21;7.33;;;5.63;;
8007;SDS011;4049;49.468;11.200;2023-02-05T09:39:48;8.07;;;5.63;;
8007;SDS011;4049;49.468;11.200;2023-02-05T09:42:19;9.77;;;5.20;;
8007;SDS011;4049;49.468;11.200;2023-02-05T09:45:02;7.40;;;4.67;;
8007;SDS011;4049;49.468;11.200;2023-02-05T09:47:37;9.00;;;4.77;;
8007;SDS011;4049;49.468;11.200;2023-02-05T09:50:10;7.37;;;4.53;;
8007;SDS011;4049;49.468;11.200;2023-02-05T09:52:46;8.87;;;4.70;;
8007;SDS011;4049;49.468;11.200;2023-02-05T09:55:16;6.57;;;4.90;;
8007;SDS011;4049;49.468;11.200;2023-02-05T09:57:46;5.93;;;4.50;;
8007;SDS011;4049;49.468;11.200;2023-02-05T10:00:17;8.47;;;4.70;;
8007;SDS011;4049;49.468;11.200;2023-02-05T10:02:47;7.77;;;4.37;;
8007;SDS011;4049;49.468;11.200;2023-02-05T10:05:18;7.37;;;5.03;;
8007;SDS011;4049;49.468;11.200;2023-02-05T10:07:51;6.27;;;4.87;;
8007;SDS011;4049;49.468;11.200;2023-02-05T10:10:24;7.30;;;4.43;;
8007;SDS011;4049;49.468;11.200;2023-02-05T10:13:00;6.17;;;4.50;;
8007;SDS011;4049;49.468;11.200;2023-02-05T10:15:51;7.13;;;4.40;;
8007;SDS011;4049;49.468;11.200;2023-02-05T10:18:43;5.63;;;4.40;;
8007;SDS011;4049;49.468;11.200;2023-02-05T10:21:27;5.47;;;4.10;;
8007;SDS011;4049;49.468;11.200;2023-02-05T10:24:13;5.67;;;4.20;;
8007;SDS011;4049;49.468;11.200;2023-02-05T10:26:49;8.17;;;4.70;;
8007;SDS011;4049;49.468;11.200;2023-02-05T10:29:23;5.80;;;4.50;;
8007;SDS011;4049;49.468;11.200;2023-02-05T10:32:04;8.37;;;4.90;;
8007;SDS011;4049;49.468;11.200;2023-02-05T10:34:48;9.17;;;4.70;;
8007;SDS011;4049;49.468;11.200;2023-02-05T10:37:24;8.63;;;5.30;;
8007;SDS011;4049;49.468;11.200;2023-02-05T10:40:00;8.63;;;4.80;;
8007;SDS011;4049;49.468;11.200;2023-02-05T10:42:30;8.00;;;4.70;;
8007;SDS011;4049;49.468;11.200;2023-02-05T10:45:03;6.87;;;4.60;;
8007;SDS011;4049;49.468;11.200;2023-02-05T10:47:41;10.87;;;6.83;;
8007;SDS011;4049;49.468;11.200;2023-02-05T10:50:19;10.70;;;6.73;;
8007;SDS011;4049;49.468;11.200;2023-02-05T10:52:50;10.30;;;6.50;;
8007;SDS011;4049;49.468;11.200;2023-02-05T10:55:17;11.30;;;7.30;;
8007;SDS011;4049;49.468;11.200;2023-02-05T10:57:45;11.63;;;6.50;;
8007;SDS011;4049;49.468;11.200;2023-02-05T11:00:13;11.20;;;7.00;;
8007;SDS011;4049;49.468;11.200;2023-02-05T11:02:45;10.57;;;6.87;;
8007;SDS011;4049;49.468;11.200;2023-02-05T11:05:15;11.33;;;7.10;;
8007;SDS011;4049;49.468;11.200;2023-02-05T11:07:48;8.90;;;5.53;;
8007;SDS011;4049;49.468;11.200;2023-02-05T11:10:18;6.13;;;5.20;;
8007;SDS011;4049;49.468;11.200;2023-02-05T11:12:47;9.53;;;5.20;;
8007;SDS011;4049;49.468;11.200;2023-02-05T11:15:18;9.03;;;6.27;;
8007;SDS011;4049;49.468;11.200;2023-02-05T11:17:53;9.83;;;7.10;;
8007;SDS011;4049;49.468;11.200;2023-02-05T11:20:24;12.53;;;7.23;;
8007;SDS011;4049;49.468;11.200;2023-02-05T11:23:06;6.67;;;4.60;;
8007;SDS011;4049;49.468;11.200;2023-02-05T11:25:44;3.90;;;2.93;;
8007;SDS011;4049;49.468;11.200;2023-02-05T11:28:17;4.27;;;2.90;;
8007;SDS011;4049;49.468;11.200;2023-02-05T11:30:47;21.10;;;8.60;;
8007;SDS011;4049;49.468;11.200;2023-02-05T11:33:22;11.10;;;5.07;;
8007;SDS011;4049;49.468;11.200;2023-02-05T11:35:55;4.33;;;2.93;;
8007;SDS011;4049;49.468;11.200;2023-02-05T11:38:25;3.67;;;2.70;;
8007;SDS011;4049;49.468;11.200;2023-02-05T11:40:57;4.10;;;2.33;;
8007;SDS011;4049;49.468;11.200;2023-02-05T11:43:30;2.30;;;1.93;;
8007;SDS011;4049;49.468;11.200;2023-02-05T11:46:00;4.20;;;2.70;;
8007;SDS011;4049;49.468;11.200;2023-02-05T11:48:32;5.70;;;3.13;;
8007;SDS011;4049;49.468;11.200;2023-02-05T11:51:04;3.20;;;2.50;;
8007;SDS011;4049;49.468;11.200;2023-02-05T11:53:33;2.90;;;2.53;;
8007;SDS011;4049;49.468;11.200;2023-02-05T11:56:02;4.50;;;2.40;;
8007;SDS011;4049;49.468;11.200;2023-02-05T11:58:33;2.67;;;2.23;;
8007;SDS011;4049;49.468;11.200;2023-02-05T12:01:00;2.93;;;2.53;;
8007;SDS011;4049;49.468;11.200;2023-02-05T12:03:29;4.13;;;2.23;;
8007;SDS011;4049;49.468;11.200;2023-02-05T12:06:01;2.97;;;2.10;;
8007;SDS011;4049;49.468;11.200;2023-02-05T12:08:38;3.60;;;2.20;;
8007;SDS011;4049;49.468;11.200;2023-02-05T12:11:22;3.80;;;2.43;;
8007;SDS011;4049;49.468;11.200;2023-02-05T12:13:59;3.60;;;2.43;;
8007;SDS011;4049;49.468;11.200;2023-02-05T12:16:35;3.70;;;2.30;;
8007;SDS011;4049;49.468;11.200;2023-02-05T12:19:15;4.13;;;2.47;;
8007;SDS011;4049;49.468;11.200;2023-02-05T12:21:47;11.13;;;4.10;;
8007;SDS011;4049;49.468;11.200;2023-02-05T12:27:11;13.40;;;6.60;;
8007;SDS011;4049;49.468;11.200;2023-02-05T12:29:50;5.97;;;4.37;;
8007;SDS011;4049;49.468;11.200;2023-02-05T12:32:30;4.03;;;3.17;;
8007;SDS011;4049;49.468;11.200;2023-02-05T12:35:18;2.70;;;2.30;;
8007;SDS011;4049;49.468;11.200;2023-02-05T12:37:55;2.90;;;2.33;;
8007;SDS011;4049;49.468;11.200;2023-02-05T12:40:34;3.50;;;2.67;;
8007;SDS011;4049;49.468;11.200;2023-02-05T12:43:11;3.33;;;2.30;;
8007;SDS011;4049;49.468;11.200;2023-02-05T12:45:50;4.57;;;2.80;;
8007;SDS011;4049;49.468;11.200;2023-02-05T12:48:28;3.30;;;2.60;;
8007;SDS011;4049;49.468;11.200;2023-02-05T12:51:19;5.03;;;3.53;;
8007;SDS011;4049;49.468;11.200;2023-02-05T12:54:01;3.67;;;2.43;;
8007;SDS011;4049;49.468;11.200;2023-02-05T12:56:43;6.50;;;3.47;;
8007;SDS011;4049;49.468;11.200;2023-02-05T12:59:21;4.33;;;2.57;;
8007;SDS011;4049;49.468;11.200;2023-02-05T13:01:59;3.83;;;2.80;;
8007;SDS011;4049;49.468;11.200;2023-02-05T13:04:31;4.97;;;3.00;;
8007;SDS011;4049;49.468;11.200;2023-02-05T13:07:05;4.63;;;2.73;;
8007;SDS011;4049;49.468;11.200;2023-02-05T13:09:39;4.10;;;2.40;;
8007;SDS011;4049;49.468;11.200;2023-02-05T13:12:12;4.80;;;2.67;;
8007;SDS011;4049;49.468;11.200;2023-02-05T13:14:43;3.30;;;2.27;;
8007;SDS011;4049;49.468;11.200;2023-02-05T13:17:16;3.70;;;2.87;;
8007;SDS011;4049;49.468;11.200;2023-02-05T13:19:48;3.73;;;2.73;;
8007;SDS011;4049;49.468;11.200;2023-02-05T13:22:20;3.67;;;2.63;;
8007;SDS011;4049;49.468;11.200;2023-02-05T13:25:13;9.00;;;6.07;;
8007;SDS011;4049;49.468;11.200;2023-02-05T13:28:05;7.90;;;4.07;;
8007;SDS011;4049;49.468;11.200;2023-02-05T13:31:08;5.30;;;3.90;;
8007;SDS011;4049;49.468;11.200;2023-02-05T13:33:42;5.27;;;3.60;;
8007;SDS011;4049;49.468;11.200;2023-02-05T13:39:15;5.43;;;2.80;;
8007;SDS011;4049;49.468;11.200;2023-02-05T13:42:09;4.10;;;2.73;;
8007;SDS011;4049;49.468;11.200;2023-02-05T13:45:00;4.13;;;2.67;;
8007;SDS011;4049;49.468;11.200;2023-02-05T13:47:54;3.50;;;2.57;;
8007;SDS011;4049;49.468;11.200;2023-02-05T13:53:46;5.13;;;2.80;;
8007;SDS011;4049;49.468;11.200;2023-02-05T13:56:33;5.30;;;3.10;;
8007;SDS011;4049;49.468;11.200;2023-02-05T13:59:06;6.77;;;3.43;;
8007;SDS011;4049;49.468;11.200;2023-02-05T14:01:40;5.20;;;3.67;;
8007;SDS011;4049;49.468;11.200;2023-02-05T14:04:16;7.07;;;4.07;;
8007;SDS011;4049;49.468;11.200;2023-02-05T14:06:45;5.60;;;3.63;;
8007;SDS011;4049;49.468;11.200;2023-02-05T14:09:22;5.03;;;3.40;;
8007;SDS011;4049;49.468;11.200;2023-02-05T14:11:57;5.77;;;3.90;;
8007;SDS011;4049;49.468;11.200;2023-02-05T14:14:27;6.63;;;3.97;;
8007;SDS011;4049;49.468;11.200;2023-02-05T14:16:56;7.50;;;4.27;;
8007;SDS011;4049;49.468;11.200;2023-02-05T14:19:25;6.93;;;4.53;;
8007;SDS011;4049;49.468;11.200;2023-02-05T14:22:09;8.13;;;4.07;;
8007;SDS011;4049;49.468;11.200;2023-02-05T14:24:39;5.50;;;3.60;;
8007;SDS011;4049;49.468;11.200;2023-02-05T14:33:27;7.50;;;3.73;;
8007;SDS011;4049;49.468;11.200;2023-02-05T14:39:18;4.70;;;3.50;;
8007;SDS011;4049;49.468;11.200;2023-02-05T14:41:50;5.13;;;3.37;;
8007;SDS011;4049;49.468;11.200;2023-02-05T14:44:23;5.97;;;3.30;;
8007;SDS011;4049;49.468;11.200;2023-02-05T14:47:02;4.23;;;2.87;;
8007;SDS011;4049;49.468;11.200;2023-02-05T14:49:35;5.57;;;3.07;;
8007;SDS011;4049;49.468;11.200;2023-02-05T14:52:06;4.60;;;3.00;;
8007;SDS011;4049;49.468;11.200;2023-02-05T14:54:48;5.60;;;3.60;;
8007;SDS011;4049;49.468;11.200;2023-02-05T14:57:22;5.70;;;3.47;;
8007;SDS011;4049;49.468;11.200;2023-02-05T14:59:53;6.03;;;3.63;;
8007;SDS011;4049;49.468;11.200;2023-02-05T15:05:21;4.63;;;3.50;;
8007;SDS011;4049;49.468;11.200;2023-02-05T15:07:58;7.37;;;3.50;;
8007;SDS011;4049;49.468;11.200;2023-02-05T15:10:31;6.57;;;3.73;;
8007;SDS011;4049;49.468;11.200;2023-02-05T15:13:08;5.77;;;3.70;;
8007;SDS011;4049;49.468;11.200;2023-02-05T15:15:37;6.37;;;3.87;;
8007;SDS011;4049;49.468;11.200;2023-02-05T15:18:05;6.10;;;3.73;;
8007;SDS011;4049;49.468;11.200;2023-02-05T15:20:39;7.63;;;4.00;;
8007;SDS011;4049;49.468;11.200;2023-02-05T15:23:15;5.50;;;3.60;;
8007;SDS011;4049;49.468;11.200;2023-02-05T15:25:49;8.03;;;4.10;;
8007;SDS011;4049;49.468;11.200;2023-02-05T15:28:26;7.50;;;4.67;;
8007;SDS011;4049;49.468;11.200;2023-02-05T15:31:01;5.93;;;3.90;;
8007;SDS011;4049;49.468;11.200;2023-02-05T15:33:38;5.27;;;3.80;;
8007;SDS011;4049;49.468;11.200;2023-02-05T15:36:11;6.27;;;3.60;;
8007;SDS011;4049;49.468;11.200;2023-02-05T15:38:48;5.17;;;3.97;;
8007;SDS011;4049;49.468;11.200;2023-02-05T15:41:23;6.43;;;5.00;;
8007;SDS011;4049;49.468;11.200;2023-02-05T15:43:57;7.60;;;5.10;;
8007;SDS011;4049;49.468;11.200;2023-02-05T15:46:25;5.83;;;4.30;;